Time;durP1;ratioP1;P1;durP2;ratioP2;P2;SDS_P1;SDS_P2;PMS_P1;PMS_P2;Temp;Humidity;BMP_temperature;BMP_pressure;BME280_temperature;BME280_humidity;BME280_pressure;Samples;Min_cycle;Max_cycle;Signal;HPM_P1;HPM_P2
2023/05/28 00:00:00;;;;;;;;;;;;;;;15.19;100.00;99393.81;5051079;28;856;-58
2023/05/28 00:02:27;;;;;;;;;;;;;;;15.24;100.00;99390.47;5051628;28;918;-58
2023/05/28 00:04:53;;;;;;;;;;;;;;;15.26;100.00;99393.59;5051480;28;839;-58
2023/05/28 00:07:21;;;;;;;;;;;;;;;15.30;100.00;99393.50;5051551;28;835;-58
2023/05/28 00:09:48;;;;;;;;;;;;;;;15.32;100.00;99388.25;5051310;28;1214;-58
2023/05/28 00:12:15;;;;;;;;;;;;;;;15.38;100.00;99388.47;5051594;28;1914;-58
2023/05/28 00:14:42;;;;;;;;;;;;;;;15.43;100.00;99385.16;5051412;28;883;-58
2023/05/28 00:17:09;;;;;;;;;;;;;;;15.42;100.00;99387.13;5051395;28;952;-59
2023/05/28 00:19:35;;;;;;;;;;;;;;;15.42;100.00;99387.13;5051351;28;800;-58
2023/05/28 00:22:02;;;;;;;;;;;;;;;15.42;100.00;99386.34;5051372;28;864;-59
2023/05/28 00:24:28;;;;;;;;;;;;;;;15.43;100.00;99380.34;5051292;28;903;-58
2023/05/28 00:26:55;;;;;;;;;;;;;;;15.44;100.00;99378.34;5051189;28;962;-59
2023/05/28 00:29:24;;;;;;;;;;;;;;;15.45;100.00;99377.91;5051285;28;915;-58
2023/05/28 00:31:54;;;;;;;;;;;;;;;15.46;100.00;99373.88;5051114;28;1953;-58
2023/05/28 00:34:22;;;;;;;;;;;;;;;15.50;100.00;99365.41;5052004;28;839;-58
2023/05/28 00:36:49;;;;;;;;;;;;;;;15.52;100.00;99366.53;5051982;28;808;-59
2023/05/28 00:39:15;;;;;;;;;;;;;;;15.51;100.00;99355.81;5051931;28;772;-58
2023/05/28 00:41:42;;;;;;;;;;;;;;;15.51;100.00;99362.19;5051328;28;1026;-58
2023/05/28 00:44:09;;;;;;;;;;;;;;;15.54;100.00;99362.53;5051833;28;812;-58
2023/05/28 00:46:36;;;;;;;;;;;;;;;15.56;100.00;99360.06;5033287;28;1051;-59
2023/05/28 00:49:03;;;;;;;;;;;;;;;15.59;100.00;99367.53;5051107;28;844;-58
2023/05/28 00:51:31;;;;;;;;;;;;;;;15.59;100.00;99362.72;5051360;28;1949;-59
2023/05/28 00:53:58;;;;;;;;;;;;;;;15.60;100.00;99363.53;5051545;28;820;-58
2023/05/28 00:56:26;;;;;;;;;;;;;;;15.57;100.00;99365.19;5051257;28;863;-58
2023/05/28 00:58:53;;;;;;;;;;;;;;;15.57;100.00;99365.19;5051163;28;850;-59
2023/05/28 01:01:20;;;;;;;;;;;;;;;15.59;100.00;99356.38;5051142;28;970;-58
2023/05/28 01:03:47;;;;;;;;;;;;;;;15.59;100.00;99361.94;5051133;28;808;-58
2023/05/28 01:06:14;;;;;;;;;;;;;;;15.57;100.00;99358.84;5051377;28;812;-58
2023/05/28 01:08:44;;;;;;;;;;;;;;;15.56;100.00;99358.06;5051393;28;848;-58
2023/05/28 01:11:12;;;;;;;;;;;;;;;15.57;100.00;99361.63;5050196;28;1933;-58
2023/05/28 01:13:40;;;;;;;;;;;;;;;15.60;100.00;99355.94;5053645;28;891;-58
2023/05/28 01:16:08;;;;;;;;;;;;;;;15.62;100.00;99359.06;5054708;28;914;-58
2023/05/28 01:18:37;;;;;;;;;;;;;;;15.63;100.00;99354.25;5054589;28;875;-58
2023/05/28 01:21:04;;;;;;;;;;;;;;;15.64;100.00;99350.22;5054542;28;835;-58
2023/05/28 01:23:37;;;;;;;;;;;;;;;15.64;100.00;99355.81;5036683;28;1398;-58
2023/05/28 01:26:04;;;;;;;;;;;;;;;15.63;100.00;99357.03;5054469;28;883;-58
2023/05/28 01:28:29;;;;;;;;;;;;;;;15.61;100.00;99360.28;5054390;28;848;-59
2023/05/28 01:30:56;;;;;;;;;;;;;;;15.63;100.00;99357.81;5054258;28;1945;-58
2023/05/28 01:33:24;;;;;;;;;;;;;;;15.65;100.00;99362.94;5054354;28;871;-59
2023/05/28 01:35:54;;;;;;;;;;;;;;;15.65;100.00;99366.50;5054492;28;886;-58
2023/05/28 01:38:22;;;;;;;;;;;;;;;15.68;100.00;99367.63;5036600;28;863;-58
2023/05/28 01:40:49;;;;;;;;;;;;;;;15.68;100.00;99367.63;5054132;28;903;-58
2023/05/28 01:43:16;;;;;;;;;;;;;;;15.67;100.00;99360.50;5054155;28;820;-58
2023/05/28 01:45:43;;;;;;;;;;;;;;;15.68;100.00;99357.28;5054036;28;824;-58
2023/05/28 01:48:10;;;;;;;;;;;;;;;15.69;100.00;99358.81;5054289;28;820;-58
2023/05/28 01:50:38;;;;;;;;;;;;;;;15.69;100.00;99350.47;5054277;28;836;-58
2023/05/28 01:53:05;;;;;;;;;;;;;;;15.67;100.00;99341.75;5053870;28;2249;-58
2023/05/28 01:55:32;;;;;;;;;;;;;;;15.67;100.00;99341.75;5054203;28;859;-58
2023/05/28 01:57:59;;;;;;;;;;;;;;;15.69;100.00;99344.13;5053945;28;879;-58
2023/05/28 02:00:26;;;;;;;;;;;;;;;15.69;100.00;99347.66;5054027;28;863;-58
2023/05/28 02:02:53;;;;;;;;;;;;;;;15.68;100.00;99362.03;5053736;28;890;-58
2023/05/28 02:05:19;;;;;;;;;;;;;;;15.67;100.00;99355.69;5054002;28;867;-58
2023/05/28 02:07:46;;;;;;;;;;;;;;;15.69;100.00;99366.41;5053644;28;860;-58
2023/05/28 02:10:13;;;;;;;;;;;;;;;15.68;100.00;99354.47;5053314;28;1234;-58
2023/05/28 02:12:39;;;;;;;;;;;;;;;15.70;100.00;99362.38;5053544;28;1910;-58
2023/05/28 02:15:07;;;;;;;;;;;;;;;15.69;100.00;99369.97;5053515;28;852;-58
2023/05/28 02:17:35;;;;;;;;;;;;;;;15.68;100.00;99375.97;5053421;28;1094;-59
2023/05/28 02:20:02;;;;;;;;;;;;;;;15.68;100.00;99381.53;5053415;28;800;-58
2023/05/28 02:22:29;;;;;;;;;;;;;;;15.68;100.00;99381.53;5053747;28;871;-58
2023/05/28 02:24:56;;;;;;;;;;;;;;;15.69;100.00;99378.31;5052942;28;859;-58
2023/05/28 02:27:23;;;;;;;;;;;;;;;15.71;100.00;99377.88;5053341;28;816;-58
2023/05/28 02:29:49;;;;;;;;;;;;;;;15.70;100.00;99371.53;5053585;28;836;-59
2023/05/28 02:32:17;;;;;;;;;;;;;;;15.70;100.00;99374.31;5053142;28;1979;-58
2023/05/28 02:34:44;;;;;;;;;;;;;;;15.68;100.00;99375.97;5053216;28;895;-58
2023/05/28 02:37:10;;;;;;;;;;;;;;;15.65;100.00;99377.66;5053111;28;864;-58
2023/05/28 02:39:37;;;;;;;;;;;;;;;15.62;100.00;99370.19;5053131;28;812;-58
2023/05/28 02:42:03;;;;;;;;;;;;;;;15.55;100.00;99375.22;5052991;28;879;-58
2023/05/28 02:44:30;;;;;;;;;;;;;;;15.48;100.00;99373.44;5053051;28;1007;-59
2023/05/28 02:46:57;;;;;;;;;;;;;;;15.46;100.00;99373.09;5052991;28;809;-59
2023/05/28 02:49:24;;;;;;;;;;;;;;;15.44;100.00;99373.53;5052886;28;829;-58
2023/05/28 02:51:51;;;;;;;;;;;;;;;15.42;100.00;99366.88;5052955;28;1941;-59
2023/05/28 02:54:17;;;;;;;;;;;;;;;15.37;100.00;99373.00;5052718;28;942;-58
2023/05/28 02:56:44;;;;;;;;;;;;;;;15.35;100.00;99372.66;5052742;28;914;-58
2023/05/28 02:59:11;;;;;;;;;;;;;;;15.34;100.00;99366.31;5052780;28;831;-58
2023/05/28 03:01:38;;;;;;;;;;;;;;;15.32;100.00;99372.34;5052697;28;931;-59
2023/05/28 03:04:04;;;;;;;;;;;;;;;15.30;100.00;99365.66;5052592;28;851;-58
2023/05/28 03:06:33;;;;;;;;;;;;;;;15.27;100.00;99372.88;5052655;28;863;-58
2023/05/28 03:09:00;;;;;;;;;;;;;;;15.27;100.00;99380.44;5052479;28;969;-59
2023/05/28 03:11:28;;;;;;;;;;;;;;;15.31;100.00;99381.91;5052254;28;1906;-58
2023/05/28 03:13:54;;;;;;;;;;;;;;;15.37;100.00;99375.78;5052451;28;934;-59
2023/05/28 03:16:21;;;;;;;;;;;;;;;15.42;100.00;99380.78;5052413;28;811;-59
2023/05/28 03:18:48;;;;;;;;;;;;;;;15.46;100.00;99382.22;5052329;28;879;-58
2023/05/28 03:21:15;;;;;;;;;;;;;;;15.50;100.00;99382.91;5052329;28;879;-58
2023/05/28 03:23:42;;;;;;;;;;;;;;;15.55;100.00;99389.91;5052103;28;871;-58
2023/05/28 03:26:08;;;;;;;;;;;;;;;15.62;100.00;99386.91;5052240;28;836;-58
2023/05/28 03:28:35;;;;;;;;;;;;;;;15.69;100.00;99385.91;5052044;28;895;-59
2023/05/28 03:31:03;;;;;;;;;;;;;;;15.76;100.00;99390.50;5052076;28;1977;-58
2023/05/28 03:33:30;;;;;;;;;;;;;;;15.81;100.00;99385.13;5052069;28;832;-58
2023/05/28 03:35:57;;;;;;;;;;;;;;;15.87;100.00;99390.91;5051247;28;840;-58
2023/05/28 03:38:23;;;;;;;;;;;;;;;15.95;100.00;99381.09;5052036;28;819;-58
2023/05/28 03:40:50;;;;;;;;;;;;;;;16.03;100.00;99382.41;5051967;28;847;-59
2023/05/28 03:43:17;;;;;;;;;;;;;;;16.10;100.00;99384.16;5051923;28;903;-58
2023/05/28 03:45:44;;;;;;;;;;;;;;;16.15;100.00;99391.19;5033964;28;1290;-58
2023/05/28 03:48:11;;;;;;;;;;;;;;;16.22;100.00;99388.94;5051845;28;890;-58
2023/05/28 03:50:37;;;;;;;;;;;;;;;16.29;100.00;99394.25;5051799;28;824;-58
2023/05/28 03:53:04;;;;;;;;;;;;;;;16.36;100.00;99393.22;5051622;28;2323;-58
2023/05/28 03:55:31;;;;;;;;;;;;;;;16.45;100.00;99398.09;5051865;28;1017;-58
2023/05/28 03:57:58;;;;;;;;;;;;;;;16.54;100.00;99409.34;5051632;28;922;-59
2023/05/28 04:00:24;;;;;;;;;;;;;;;16.67;100.00;99407.25;5051898;28;828;-59
2023/05/28 04:02:51;;;;;;;;;;;;;;;16.80;100.00;99410.03;5051938;28;875;-59
2023/05/28 04:05:18;;;;;;;;;;;;;;;16.90;100.00;99413.66;5051566;28;891;-59
2023/05/28 04:07:45;;;;;;;;;;;;;;;16.96;100.00;99413.84;5051483;28;893;-58
2023/05/28 04:10:12;;;;;;;;;;;;;;;16.96;100.00;99427.78;5051536;28;1202;-58
2023/05/28 04:12:39;;;;;;;;;;;;;;;16.97;100.00;99426.56;5051621;28;1923;-59
2023/05/28 04:15:07;;;;;;;;;;;;;;;16.98;100.00;99422.53;5051451;28;887;-58
2023/05/28 04:17:34;;;;;;;;;;;;;;;17.05;100.00;99439.03;5051422;28;809;-59
2023/05/28 04:20:01;;;;;;;;;;;;;;;17.07;100.00;99425.38;5051508;28;828;-58
2023/05/28 04:22:28;;;;;;;;;;;;;;;17.07;100.00;99430.97;5051208;28;876;-58
2023/05/28 04:24:57;;;;;;;;;;;;;;;17.07;100.00;99425.38;5051327;28;903;-58
2023/05/28 04:27:24;;;;;;;;;;;;;;;17.04;100.00;99432.66;5051229;28;867;-58
2023/05/28 04:29:52;;;;;;;;;;;;;;;17.03;100.00;99430.34;5051631;28;805;-58
2023/05/28 04:32:19;;;;;;;;;;;;;;;17.00;100.00;99434.78;5051163;28;1885;-58
2023/05/28 04:34:47;;;;;;;;;;;;;;;16.92;100.00;99427.94;5051249;28;832;-58
2023/05/28 04:37:15;;;;;;;;;;;;;;;16.93;100.00;99423.91;5051129;28;904;-58
2023/05/28 04:39:42;;;;;;;;;;;;;;;16.94;100.00;99431.84;5051117;28;1390;-58
2023/05/28 04:42:13;;;;;;;;;;;;;;;16.99;100.00;99438.84;5051197;28;883;-58
2023/05/28 04:44:40;;;;;;;;;;;;;;;17.03;100.00;99444.31;5051141;28;1026;-58
2023/05/28 04:47:09;;;;;;;;;;;;;;;17.03;100.00;99435.91;5053251;28;805;-58
2023/05/28 04:52:40;;;;;;;;;;;;;;;17.39;100.00;99432.56;5023877;28;1975;-58
2023/05/28 04:55:07;;;;;;;;;;;;;;;17.46;100.00;99434.28;5055417;28;823;-58
2023/05/28 04:57:34;;;;;;;;;;;;;;;17.53;100.00;99434.78;5055490;28;816;-58
2023/05/28 05:00:01;;;;;;;;;;;;;;;17.57;100.00;99439.47;5055487;28;787;-58
2023/05/28 05:02:28;;;;;;;;;;;;;;;17.60;100.00;99436.50;5055448;28;855;-58
2023/05/28 05:04:56;;;;;;;;;;;;;;;17.67;100.00;99441.06;5055143;28;855;-58
2023/05/28 05:07:23;;;;;;;;;;;;;;;17.57;100.00;99448.59;5055033;28;808;-58
2023/05/28 05:09:51;;;;;;;;;;;;;;;17.51;100.00;99447.66;5055156;28;900;-58
2023/05/28 05:12:17;;;;;;;;;;;;;;;17.50;100.00;99451.69;5015332;28;1974;-58
2023/05/28 05:14:44;;;;;;;;;;;;;;;17.55;100.00;99437.88;5015162;28;868;-58
2023/05/28 05:17:12;;;;;;;;;;;;;;;17.62;100.00;99439.63;5015154;28;840;-58
2023/05/28 05:19:39;;;;;;;;;;;;;;;17.73;100.00;99440.00;5014772;28;891;-58
2023/05/28 05:22:07;;;;;;;;;;;;;;;17.73;100.00;99448.38;5014954;28;871;-58
2023/05/28 05:24:34;;;;;;;;;;;;;;;17.78;100.00;99449.78;5014767;28;820;-59
2023/05/28 05:27:01;;;;;;;;;;;;;;;17.88;100.00;99448.59;5014897;28;870;-59
2023/05/28 05:29:28;;;;;;;;;;;;;;;17.93;100.00;99456.38;5014809;28;817;-59
2023/05/28 05:31:56;;;;;;;;;;;;;;;18.01;100.00;99450.47;5014626;28;1895;-58
2023/05/28 05:34:23;;;;;;;;;;;;;;;18.07;100.00;99460.63;5014902;28;828;-58
2023/05/28 05:36:50;;;;;;;;;;;;;;;18.17;100.00;99459.38;5014704;28;887;-58
2023/05/28 05:39:17;;;;;;;;;;;;;;;18.36;100.00;99453.81;5014579;28;802;-58
2023/05/28 05:41:45;;;;;;;;;;;;;;;18.62;100.00;99456.34;5014565;28;875;-58
2023/05/28 05:44:12;;;;;;;;;;;;;;;18.83;100.00;99452.63;5014485;28;888;-58
2023/05/28 05:46:38;;;;;;;;;;;;;;;19.22;100.00;99454.88;5014385;28;845;-58
2023/05/28 05:49:05;;;;;;;;;;;;;;;19.54;100.00;99461.81;5014441;28;820;-58
2023/05/28 05:51:33;;;;;;;;;;;;;;;19.62;100.00;99446.19;5014256;28;1886;-59
2023/05/28 05:54:00;;;;;;;;;;;;;;;19.60;100.00;99457.09;5014409;28;816;-58
2023/05/28 05:56:27;;;;;;;;;;;;;;;19.72;100.00;99458.97;5014191;28;888;-58
2023/05/28 05:58:54;;;;;;;;;;;;;;;19.97;100.00;99457.75;5013392;28;887;-58
2023/05/28 06:01:20;;;;;;;;;;;;;;;20.24;100.00;99449.66;5014203;28;875;-58
2023/05/28 06:03:47;;;;;;;;;;;;;;;20.97;100.00;99463.16;5014402;28;877;-58
2023/05/28 06:06:14;;;;;;;;;;;;;;;21.31;100.00;99455.28;5014132;28;832;-58
2023/05/28 06:08:41;;;;;;;;;;;;;;;20.78;100.00;99458.91;5014147;28;824;-58
2023/05/28 06:11:09;;;;;;;;;;;;;;;20.14;100.00;99457.34;5034446;28;1902;-58
2023/05/28 06:13:36;;;;;;;;;;;;;;;19.63;100.00;99461.78;5053660;28;927;-58
2023/05/28 06:16:04;;;;;;;;;;;;;;;19.37;100.00;99465.00;5053597;28;876;-58
2023/05/28 06:18:31;;;;;;;;;;;;;;;19.36;100.00;99457.81;5053528;28;894;-58
2023/05/28 06:20:58;;;;;;;;;;;;;;;19.61;100.00;99449.47;5053379;28;812;-58
2023/05/28 06:23:26;;;;;;;;;;;;;;;19.89;100.00;99444.56;5053619;28;867;-58
2023/05/28 06:25:53;;;;;;;;;;;;;;;20.38;100.00;99448.94;5035537;28;1366;-58
2023/05/28 06:28:20;;;;;;;;;;;;;;;20.77;100.00;99446.16;5053298;28;867;-57
2023/05/28 06:30:47;;;;;;;;;;;;;;;20.86;100.00;99443.25;5053324;28;833;-57
2023/05/28 06:33:13;;;;;;;;;;;;;;;20.82;100.00;99442.66;5053224;28;1898;-58
2023/05/28 06:35:41;;;;;;;;;;;;;;;20.90;100.00;99460.69;5053223;28;873;-58
2023/05/28 06:38:08;;;;;;;;;;;;;;;21.22;100.00;99449.78;5053030;28;957;-58
2023/05/28 06:40:35;;;;;;;;;;;;;;;21.13;100.00;99452.69;5053063;28;828;-58
2023/05/28 06:43:02;;;;;;;;;;;;;;;20.94;100.00;99455.66;5053091;28;852;-58
2023/05/28 06:45:32;;;;;;;;;;;;;;;20.96;100.00;99452.38;5053112;28;828;-58
2023/05/28 06:47:59;;;;;;;;;;;;;;;20.69;100.00;99447.78;5052989;28;875;-58
2023/05/28 06:50:26;;;;;;;;;;;;;;;20.55;100.00;99457.69;5052836;28;847;-58
2023/05/28 06:52:54;;;;;;;;;;;;;;;20.51;100.00;99459.91;5052984;28;1977;-58
2023/05/28 06:55:21;;;;;;;;;;;;;;;20.37;100.00;99456.56;5052828;28;859;-58
2023/05/28 06:57:48;;;;;;;;;;;;;;;20.23;100.00;99467.72;5052790;28;855;-58
2023/05/28 07:00:16;;;;;;;;;;;;;;;20.63;100.00;99472.16;5052777;28;914;-58
2023/05/28 07:02:44;;;;;;;;;;;;;;;21.00;100.00;99473.41;5052680;28;849;-58
2023/05/28 07:05:12;;;;;;;;;;;;;;;21.03;100.00;99465.28;5052827;28;872;-58
2023/05/28 07:07:39;;;;;;;;;;;;;;;21.06;100.00;99479.13;5052577;28;827;-58
2023/05/28 07:10:07;;;;;;;;;;;;;;;21.18;100.00;99477.28;5052406;28;1162;-58
2023/05/28 07:12:34;;;;;;;;;;;;;;;20.95;100.00;99474.09;5052466;28;1921;-58
2023/05/28 07:15:02;;;;;;;;;;;;;;;20.59;100.00;99475.94;5052371;28;877;-59
2023/05/28 07:17:29;;;;;;;;;;;;;;;20.21;100.00;99470.25;5052386;28;903;-58
2023/05/28 07:19:56;;;;;;;;;;;;;;;19.95;100.00;99456.66;5052294;28;836;-58
2023/05/28 07:22:24;;;;;;;;;;;;;;;20.01;100.00;99462.41;5052456;28;846;-59
2023/05/28 07:24:51;;;;;;;;;;;;;;;20.49;100.00;99462.41;5052278;28;918;-58
2023/05/28 07:27:18;;;;;;;;;;;;;;;21.26;100.00;99455.22;5052204;28;891;-58
2023/05/28 07:29:45;;;;;;;;;;;;;;;21.81;100.00;99463.03;5034320;28;1260;-58
2023/05/28 07:32:12;;;;;;;;;;;;;;;22.09;100.00;99451.41;5052034;28;1890;-59
2023/05/28 07:34:40;;;;;;;;;;;;;;;21.98;100.00;99458.41;5052043;28;864;-58
2023/05/28 07:37:07;;;;;;;;;;;;;;;22.66;100.00;99455.72;5052023;28;836;-58
2023/05/28 07:39:35;;;;;;;;;;;;;;;23.96;100.00;99452.81;5052036;28;828;-58
2023/05/28 07:42:01;;;;;;;;;;;;;;;24.65;100.00;99458.31;5052034;28;823;-57
2023/05/28 07:44:28;;;;;;;;;;;;;;;24.31;100.00;99462.25;5051976;28;891;-58
2023/05/28 07:46:55;;;;;;;;;;;;;;;23.70;100.00;99466.97;5051902;28;1001;-58
2023/05/28 07:49:23;;;;;;;;;;;;;;;23.24;100.00;99471.47;5051935;28;882;-58
2023/05/28 07:51:50;;;;;;;;;;;;;;;22.72;100.00;99482.66;5052023;28;1953;-59
2023/05/28 07:54:17;;;;;;;;;;;;;;;22.34;100.00;99478.09;5051737;28;884;-59
2023/05/28 07:56:44;;;;;;;;;;;;;;;21.80;100.00;99483.97;5051723;28;836;-59
2023/05/28 07:59:11;;;;;;;;;;;;;;;21.16;100.00;99488.25;5033769;28;1251;-59
2023/05/28 08:01:38;;;;;;;;;;;;;;;20.52;100.00;99470.66;5051653;28;879;-59
2023/05/28 08:04:06;;;;;;;;;;;;;;;20.31;100.00;99471.72;5051609;28;879;-58
2023/05/28 08:06:33;;;;;;;;;;;;;;;20.36;100.00;99479.50;5051598;28;863;-59
2023/05/28 08:09:00;;;;;;;;;;;;;;;20.94;100.00;99477.38;5033643;28;1215;-59
2023/05/28 08:11:27;;;;;;;;;;;;;;;21.55;100.00;99476.91;5051196;28;1975;-58
2023/05/28 08:13:54;;;;;;;;;;;;;;;21.66;100.00;99477.13;5052161;28;789;-59
2023/05/28 08:16:21;;;;;;;;;;;;;;;21.41;100.00;99475.66;5051768;28;879;-59
2023/05/28 08:18:48;;;;;;;;;;;;;;;21.07;100.00;99488.34;5051404;28;820;-59
2023/05/28 08:21:16;;;;;;;;;;;;;;;20.68;100.00;99479.94;5051280;28;769;-59
2023/05/28 08:23:42;;;;;;;;;;;;;;;20.43;100.00;99483.97;5051869;28;880;-59
2023/05/28 08:26:09;;;;;;;;;;;;;;;20.49;100.00;99482.84;5052045;28;777;-58
2023/05/28 08:28:36;;;;;;;;;;;;;;;20.52;100.00;99476.25;5033532;28;1651;-59
2023/05/28 08:31:03;;;;;;;;;;;;;;;20.50;100.00;99478.75;5051489;28;820;-59
2023/05/28 08:33:29;;;;;;;;;;;;;;;20.25;100.00;99468.03;5051378;28;882;-59
2023/05/28 08:35:56;;;;;;;;;;;;;;;20.54;100.00;99470.94;5051292;28;875;-58
2023/05/28 08:38:23;;;;;;;;;;;;;;;21.26;100.00;99474.88;5051222;28;859;-58
2023/05/28 08:40:53;;;;;;;;;;;;;;;21.93;100.00;99466.75;5051217;28;811;-58
2023/05/28 08:43:21;;;;;;;;;;;;;;;22.17;100.00;99469.44;5051601;28;855;-58
2023/05/28 08:45:56;;;;;;;;;;;;;;;21.89;100.00;99471.81;5051216;28;914;-59
2023/05/28 08:48:23;;;;;;;;;;;;;;;21.55;100.00;99466.47;5051073;28;884;-58
2023/05/28 08:50:51;;;;;;;;;;;;;;;21.22;100.00;99461.00;5051104;28;803;-58
2023/05/28 08:53:21;;;;;;;;;;;;;;;20.93;100.00;99465.38;5051047;28;1886;-58
2023/05/28 08:55:49;;;;;;;;;;;;;;;21.12;100.00;99473.59;5051066;28;808;-58
2023/05/28 08:58:17;;;;;;;;;;;;;;;21.41;100.00;99468.00;5051311;28;828;-58
2023/05/28 09:00:45;;;;;;;;;;;;;;;21.52;100.00;99466.66;5051012;28;877;-58
2023/05/28 09:03:12;;;;;;;;;;;;;;;21.95;100.00;99470.63;5051029;28;895;-59
2023/05/28 09:05:39;;;;;;;;;;;;;;;22.29;100.00;99470.38;5050937;28;847;-58
2023/05/28 09:08:10;;;;;;;;;;;;;;;22.74;100.00;99468.09;5051064;28;859;-58
2023/05/28 09:10:39;;;;;;;;;;;;;;;22.70;100.00;99465.50;5051087;28;1143;-58
2023/05/28 09:13:06;;;;;;;;;;;;;;;21.92;100.00;99470.84;5050844;28;1976;-58
2023/05/28 09:15:37;;;;;;;;;;;;;;;21.12;100.00;99474.41;5050862;28;832;-59
2023/05/28 09:18:04;;;;;;;;;;;;;;;20.25;100.00;99468.03;5050931;28;915;-58
2023/05/28 09:20:31;;;;;;;;;;;;;;;19.85;100.00;99466.41;5050831;28;812;-58
2023/05/28 09:23:06;;;;;;;;;;;;;;;19.91;100.00;99475.72;5050840;28;879;-58
2023/05/28 09:25:36;;;;;;;;;;;;;;;20.24;100.00;99463.69;5050760;28;832;-58
2023/05/28 09:28:03;;;;;;;;;;;;;;;20.61;100.00;99472.63;5032950;28;888;-59
2023/05/28 09:30:38;;;;;;;;;;;;;;;21.21;100.00;99477.09;5050752;28;879;-59
2023/05/28 09:33:07;;;;;;;;;;;;;;;21.88;100.00;99473.88;5050997;28;1882;-59
2023/05/28 09:35:34;;;;;;;;;;;;;;;22.31;100.00;99479.09;5054395;28;923;-58
2023/05/28 09:38:08;;;;;;;;;;;;;;;22.19;100.00;99472.50;5054456;28;848;-58
2023/05/28 10:09:25;;;;;;;;;;;;;;;24.31;100.00;99454.53;6050149;22;2199;-68
2023/05/28 10:12:05;;;;;;;;;;;;;;;24.00;100.00;99459.00;5013952;28;1906;-67
2023/05/28 10:14:32;;;;;;;;;;;;;;;23.75;100.00;99471.91;5014120;28;859;-65
2023/05/28 10:17:00;;;;;;;;;;;;;;;23.54;100.00;99462.00;5013997;28;882;-66
2023/05/28 10:19:28;;;;;;;;;;;;;;;23.67;100.00;99462.34;5013842;28;888;-66
2023/05/28 10:21:56;;;;;;;;;;;;;;;23.56;100.00;99459.44;5013904;28;891;-67
2023/05/28 10:24:23;;;;;;;;;;;;;;;23.14;100.00;99470.09;5013831;28;835;-66
2023/05/28 10:26:51;;;;;;;;;;;;;;;22.84;100.00;99455.41;5013840;28;914;-66
2023/05/28 10:29:18;;;;;;;;;;;;;;;23.23;100.00;99463.50;5013634;28;891;-66
2023/05/28 10:31:56;;;;;;;;;;;;;;;23.26;100.00;99459.72;5013641;28;1898;-64
2023/05/28 10:34:28;;;;;;;;;;;;;;;23.60;100.00;99454.34;5013651;28;891;-67
2023/05/28 10:36:55;;;;;;;;;;;;;;;24.35;100.00;99452.25;5013812;28;899;-66
2023/05/28 10:39:21;;;;;;;;;;;;;;;24.77;100.00;99458.31;5013546;28;839;-68
2023/05/28 10:41:49;;;;;;;;;;;;;;;24.62;100.00;99450.84;5013777;28;836;-66
2023/05/28 10:44:16;;;;;;;;;;;;;;;24.65;100.00;99449.06;5013283;28;836;-67
2023/05/28 10:46:43;;;;;;;;;;;;;;;24.14;100.00;99445.22;5013615;28;820;-66
2023/05/28 10:49:14;;;;;;;;;;;;;;;23.70;100.00;99441.56;5013637;28;872;-65
2023/05/28 10:51:44;;;;;;;;;;;;;;;23.34;100.00;99443.88;5013231;28;1882;-66
2023/05/28 10:54:37;;;;;;;;;;;;;;;22.88;100.00;99441.13;5013229;28;851;-66
2023/05/28 10:57:10;;;;;;;;;;;;;;;22.67;100.00;99449.59;5011730;28;1291;-68
2023/05/28 10:59:58;;;;;;;;;;;;;;;23.14;100.00;99441.13;5012074;28;1260;-66
2023/05/28 11:02:27;;;;;;;;;;;;;;;23.70;100.00;99432.34;5013408;28;859;-65
2023/05/28 11:04:55;;;;;;;;;;;;;;;24.89;100.00;99417.50;5013173;28;887;-67
2023/05/28 11:07:23;;;;;;;;;;;;;;;25.53;100.00;99420.66;5013244;28;910;-67
2023/05/28 11:09:51;;;;;;;;;;;;;;;25.21;100.00;99417.31;5022255;28;1368;-68
2023/05/28 11:12:21;;;;;;;;;;;;;;;25.39;100.00;99418.84;5052461;28;1969;-66
2023/05/28 11:14:48;;;;;;;;;;;;;;;24.86;100.00;99424.97;5052801;28;852;-68
2023/05/28 11:17:16;;;;;;;;;;;;;;;24.01;100.00;99432.31;5052505;28;835;-66
2023/05/28 11:19:48;;;;;;;;;;;;;;;22.96;100.00;99437.34;5052373;28;872;-68
2023/05/28 11:22:17;;;;;;;;;;;;;;;22.51;100.00;99428.44;5052370;28;832;-67
2023/05/28 11:25:04;;;;;;;;;;;;;;;23.05;100.00;99430.81;5052269;28;839;-68
2023/05/28 11:27:33;;;;;;;;;;;;;;;24.09;100.00;99424.16;5052480;28;867;-66
2023/05/28 11:30:00;;;;;;;;;;;;;;;24.55;100.00;99411.78;5052181;28;883;-67
2023/05/28 11:32:28;;;;;;;;;;;;;;;24.75;100.00;99407.19;5052107;28;1885;-66
2023/05/28 11:34:58;;;;;;;;;;;;;;;25.43;100.00;99413.72;5052127;28;891;-66
2023/05/28 11:37:27;;;;;;;;;;;;;;;25.30;100.00;99417.06;5052110;28;840;-64
2023/05/28 11:39:55;;;;;;;;;;;;;;;24.86;100.00;99422.13;5052441;28;871;-65
2023/05/28 11:42:22;;;;;;;;;;;;;;;25.26;100.00;99413.72;5052183;28;891;-67
2023/05/28 11:44:50;;;;;;;;;;;;;;;26.36;100.00;99415.31;5052078;28;860;-67
2023/05/28 11:47:18;;;;;;;;;;;;;;;26.52;100.00;99429.91;5051914;28;914;-67
2023/05/28 11:49:46;;;;;;;;;;;;;;;26.07;100.00;99414.66;5051850;28;890;-67
2023/05/28 11:52:15;;;;;;;;;;;;;;;25.91;100.00;99406.97;5051791;28;1881;-64
2023/05/28 11:54:43;;;;;;;;;;;;;;;25.33;100.00;99406.75;5051796;28;890;-67
2023/05/28 11:57:10;;;;;;;;;;;;;;;24.51;100.00;99414.06;5051364;28;828;-68
2023/05/28 11:59:37;;;;;;;;;;;;;;;24.09;100.00;99412.88;5051927;28;863;-68
2023/05/28 12:02:14;;;;;;;;;;;;;;;23.77;100.00;99401.66;5051731;28;913;-67
2023/05/28 12:04:59;;;;;;;;;;;;;;;23.56;100.00;99403.81;5051639;28;972;-68
2023/05/28 12:07:32;;;;;;;;;;;;;;;23.72;100.00;99413.63;5051538;28;878;-66
2023/05/28 12:10:06;;;;;;;;;;;;;;;24.35;100.00;99409.13;5051731;28;1215;-67
2023/05/28 12:12:35;;;;;;;;;;;;;;;24.93;100.00;99401.06;5051488;28;1973;-67
2023/05/28 12:15:02;;;;;;;;;;;;;;;26.30;100.00;99389.06;5051770;28;893;-66
2023/05/28 12:17:36;;;;;;;;;;;;;;;27.37;100.00;99390.47;5051542;28;832;-66
2023/05/28 12:20:07;;;;;;;;;;;;;;;28.00;100.00;99375.16;5051557;28;898;-64
2023/05/28 12:22:34;;;;;;;;;;;;;;;28.17;100.00;99377.03;5051437;28;815;-64
2023/05/28 12:25:01;;;;;;;;;;;;;;;29.05;100.00;99376.28;5051538;28;871;-64
2023/05/28 12:27:28;;;;;;;;;;;;;;;28.38;100.00;99380.88;5051565;28;866;-67
2023/05/28 12:29:54;;;;;;;;;;;;;;;26.88;100.00;99374.06;5051354;28;891;-66
2023/05/28 12:32:22;;;;;;;;;;;;;;;27.69;100.00;99377.25;5051275;28;1949;-66
2023/05/28 12:34:49;;;;;;;;;;;;;;;26.45;100.00;99377.41;5051371;28;804;-66
2023/05/28 12:37:16;;;;;;;;;;;;;;;25.04;100.00;99383.34;5051133;28;860;-67
2023/05/28 12:39:43;;;;;;;;;;;;;;;24.01;100.00;99363.81;5051434;28;907;-67
2023/05/28 12:42:10;;;;;;;;;;;;;;;23.90;100.00;99358.88;5051294;28;836;-66
2023/05/28 12:44:37;;;;;;;;;;;;;;;24.35;100.00;99361.13;5051476;28;828;-66
2023/05/28 12:47:04;;;;;;;;;;;;;;;24.40;100.00;99363.94;5051207;28;863;-66
2023/05/28 12:49:31;;;;;;;;;;;;;;;24.12;100.00;99363.84;5051151;28;856;-65
2023/05/28 12:51:58;;;;;;;;;;;;;;;23.84;100.00;99361.69;5051058;28;1943;-65
2023/05/28 12:54:25;;;;;;;;;;;;;;;23.82;100.00;99352.94;5051182;28;832;-66
2023/05/28 12:56:52;;;;;;;;;;;;;;;23.86;100.00;99357.59;5051061;28;843;-66
2023/05/28 12:59:25;;;;;;;;;;;;;;;23.77;100.00;99347.25;5051128;28;890;-66
2023/05/28 13:01:51;;;;;;;;;;;;;;;25.19;100.00;99337.84;5051073;28;879;-67
2023/05/28 13:04:18;;;;;;;;;;;;;;;25.82;100.00;99348.56;5051054;28;879;-66
2023/05/28 13:06:46;;;;;;;;;;;;;;;27.29;100.00;99348.50;5050878;28;809;-66
2023/05/28 13:09:12;;;;;;;;;;;;;;;27.71;100.00;99356.84;5055030;28;946;-66
2023/05/28 13:11:40;;;;;;;;;;;;;;;26.31;100.00;99359.47;5054643;28;1934;-66
2023/05/28 13:14:06;;;;;;;;;;;;;;;25.08;100.00;99360.50;5054832;28;918;-67
2023/05/28 13:16:34;;;;;;;;;;;;;;;24.19;100.00;99360.53;5054960;28;819;-66
2023/05/28 13:19:01;;;;;;;;;;;;;;;23.64;100.00;99358.94;5054694;28;895;-65
2023/05/28 13:21:31;;;;;;;;;;;;;;;23.52;100.00;99355.31;5054975;28;883;-65
2023/05/28 13:24:02;;;;;;;;;;;;;;;24.28;100.00;99361.59;5054600;28;895;-65
2023/05/28 13:26:29;;;;;;;;;;;;;;;25.82;100.00;99368.38;5054596;28;860;-67
2023/05/28 13:28:57;;;;;;;;;;;;;;;25.47;100.00;99360.47;5054518;28;855;-66